createdAt,value
2018-12-13T00:00:44.635Z,1.60
2018-12-13T00:03:12.841Z,1.60
2018-12-13T00:05:41.068Z,1.40
2018-12-13T00:10:41.036Z,1.40
2018-12-13T00:13:09.238Z,1.40
2018-12-13T00:15:37.442Z,1.40
2018-12-13T00:20:49.560Z,1.30
2018-12-13T00:30:45.612Z,1.40
2018-12-13T00:33:13.790Z,1.30
2018-12-13T00:40:41.926Z,1.50
2018-12-13T00:43:13.788Z,1.40
2018-12-13T00:48:10.304Z,1.50
2018-12-13T00:56:14.966Z,1.40
2018-12-13T00:58:43.162Z,1.60
2018-12-13T01:03:42.617Z,1.60
2018-12-13T01:06:10.795Z,1.70
2018-12-13T01:08:39.006Z,2.00
2018-12-13T01:18:52.089Z,1.50
2018-12-13T01:21:35.220Z,1.70
2018-12-13T01:28:59.901Z,1.40
2018-12-13T01:31:41.085Z,1.40
2018-12-13T01:41:47.281Z,1.50
2018-12-13T01:44:15.511Z,1.50
2018-12-13T01:52:09.706Z,1.60
2018-12-13T02:02:05.937Z,1.80
2018-12-13T02:04:34.175Z,1.70
2018-12-13T02:09:30.691Z,1.40
2018-12-13T02:12:13.786Z,1.60
2018-12-13T02:14:42.001Z,1.60
2018-12-13T02:17:10.300Z,1.70
2018-12-13T02:27:03.338Z,1.70
2018-12-13T02:29:31.536Z,1.70
2018-12-13T02:42:20.045Z,1.50
2018-12-13T02:44:48.255Z,1.50
2018-12-13T02:47:16.422Z,1.50
2018-12-13T02:49:44.618Z,1.30
2018-12-13T02:52:12.863Z,1.40
2018-12-13T02:54:41.088Z,1.30
2018-12-13T03:14:41.018Z,1.60
2018-12-13T03:24:40.321Z,1.70
2018-12-13T03:27:08.574Z,1.60
2018-12-13T03:29:36.767Z,1.80
2018-12-13T03:32:08.697Z,1.40
2018-12-13T03:34:37.093Z,1.60
2018-12-13T03:39:36.535Z,1.50
2018-12-13T03:54:36.027Z,2.50
2018-12-13T03:57:04.280Z,1.70
2018-12-13T04:05:16.236Z,1.40
2018-12-13T04:07:44.471Z,1.40
2018-12-13T04:10:15.845Z,1.30
2018-12-13T04:12:44.056Z,1.30
2018-12-13T04:15:12.342Z,1.30
2018-12-13T04:17:40.543Z,1.30
2018-12-13T04:20:08.886Z,1.30
2018-12-13T04:30:01.878Z,1.30
2018-12-13T04:34:58.326Z,1.30
2018-12-13T04:39:54.901Z,1.20
2018-12-13T04:57:12.502Z,1.50
2018-12-13T04:59:40.731Z,1.10
2018-12-13T05:04:37.126Z,1.20
2018-12-13T05:09:33.529Z,1.00
2018-12-13T05:12:18.743Z,1.10
2018-12-13T05:22:11.725Z,1.30
2018-12-13T05:27:08.199Z,1.30
2018-12-13T05:34:46.118Z,1.50
2018-12-13T05:39:42.542Z,1.50
2018-12-13T05:49:48.634Z,1.70
2018-12-13T05:52:16.799Z,1.70
2018-12-13T06:30:47.294Z,1.60
2018-12-13T06:33:15.487Z,1.60
2018-12-13T06:35:43.666Z,1.60
2018-12-13T06:38:11.871Z,1.60
2018-12-13T06:43:21.704Z,1.60
2018-12-13T06:45:49.927Z,1.30
2018-12-13T06:48:18.130Z,1.60
2018-12-13T06:50:52.940Z,1.50
2018-12-13T06:53:21.114Z,1.60
2018-12-13T06:55:49.439Z,1.60
2018-12-13T06:58:17.640Z,1.70
2018-12-13T07:00:58.973Z,1.70
2018-12-13T07:05:55.448Z,1.80
2018-12-13T07:08:23.646Z,1.70
2018-12-13T07:11:06.502Z,1.80
2018-12-13T07:21:20.131Z,1.70
2018-12-13T07:28:57.776Z,1.60
2018-12-13T07:31:32.398Z,1.40
2018-12-13T07:34:00.632Z,1.50
2018-12-13T07:36:28.927Z,1.40
2018-12-13T07:38:57.965Z,1.40
2018-12-13T07:41:39.758Z,1.60
2018-12-13T07:54:26.363Z,1.40
2018-12-13T07:56:54.605Z,1.20
2018-12-13T07:59:22.806Z,1.50
2018-12-13T08:01:54.142Z,1.50
2018-12-13T08:07:21.419Z,1.70
2018-12-13T08:09:49.599Z,1.60
2018-12-13T08:12:18.102Z,1.70
2018-12-13T08:17:15.859Z,1.70
2018-12-13T08:19:44.048Z,1.60
2018-12-13T08:34:37.174Z,1.70
2018-12-13T08:37:05.388Z,1.80
2018-12-13T08:39:33.537Z,1.80
2018-12-13T08:42:05.452Z,1.90
2018-12-13T08:44:33.626Z,2.00
2018-12-13T08:52:01.721Z,1.90
2018-12-13T08:54:29.917Z,1.90
2018-12-13T08:56:58.150Z,2.00
2018-12-13T08:59:26.339Z,2.00
2018-12-13T09:04:25.949Z,2.00
2018-12-13T09:06:54.165Z,2.10
2018-12-13T09:09:22.322Z,2.20
2018-12-13T09:11:56.225Z,2.00
2018-12-13T09:14:30.866Z,2.00
2018-12-13T09:24:27.334Z,2.00
2018-12-13T09:31:57.718Z,2.80
2018-12-13T09:34:25.902Z,2.00
2018-12-13T09:36:54.065Z,2.10
2018-12-13T09:39:22.283Z,2.20
2018-12-13T09:41:53.573Z,2.30
2018-12-13T09:44:21.762Z,2.40
2018-12-13T09:46:49.922Z,2.40
2018-12-13T09:49:18.102Z,2.40
2018-12-13T09:54:18.117Z,2.30
2018-12-13T09:59:14.461Z,2.50
2018-12-13T10:01:45.822Z,2.10
2018-12-13T10:04:13.998Z,2.60
2018-12-13T10:06:42.157Z,2.50
2018-12-13T10:09:10.335Z,2.40
2018-12-13T10:11:42.302Z,2.40
2018-12-13T10:14:10.539Z,2.30
2018-12-13T10:19:07.002Z,2.30
2018-12-13T10:21:38.930Z,2.40
2018-12-13T10:24:07.855Z,2.20
2018-12-13T10:26:37.091Z,2.10
2018-12-13T10:29:05.465Z,2.10
2018-12-13T10:31:37.283Z,2.20
2018-12-13T10:34:05.529Z,2.50
2018-12-13T10:39:01.886Z,2.40
2018-12-13T10:41:33.565Z,2.00
2018-12-13T10:46:29.938Z,2.20
2018-12-13T10:48:58.129Z,2.30
2018-12-13T10:51:30.024Z,2.20
2018-12-13T10:53:58.200Z,2.30
2018-12-13T10:58:54.553Z,2.10
2018-12-13T11:01:45.017Z,1.70
2018-12-13T11:04:13.194Z,2.30
2018-12-13T11:06:41.418Z,2.20
2018-12-13T11:09:09.600Z,2.20
2018-12-13T11:11:41.653Z,2.20
2018-12-13T11:14:09.838Z,2.10
2018-12-13T11:19:06.270Z,2.20
2018-12-13T11:24:05.924Z,2.30
2018-12-13T11:26:34.092Z,2.50
2018-12-13T11:34:19.718Z,2.60
2018-12-13T11:36:47.911Z,2.40
2018-12-13T11:39:16.126Z,2.50
2018-12-13T11:41:50.513Z,2.80
2018-12-13T11:44:18.856Z,2.70
2018-12-13T11:46:47.048Z,2.50
2018-12-13T11:49:15.257Z,2.80
2018-12-13T11:51:46.934Z,2.80
2018-12-13T11:54:19.609Z,2.70
2018-12-13T11:56:49.133Z,2.70
2018-12-13T11:59:17.320Z,2.90
2018-12-13T12:01:48.491Z,2.90
2018-12-13T12:04:16.670Z,2.90
2018-12-13T12:06:44.827Z,2.90
2018-12-13T12:09:12.989Z,3.00
2018-12-13T12:11:44.045Z,2.90
2018-12-13T12:14:12.270Z,2.70
2018-12-13T12:16:40.434Z,3.40
2018-12-13T12:19:08.649Z,2.90
2018-12-13T12:21:40.421Z,2.70
2018-12-13T12:24:08.598Z,2.90
2018-12-13T12:26:36.753Z,2.90
2018-12-13T12:29:04.943Z,2.70
2018-12-13T12:31:39.598Z,3.00
2018-12-13T12:34:07.760Z,2.80
2018-12-13T12:39:06.382Z,2.80
2018-12-13T12:41:38.081Z,2.70
2018-12-13T12:46:34.946Z,2.70
2018-12-13T12:49:03.099Z,2.90
2018-12-13T12:51:34.453Z,2.70
2018-12-13T12:54:02.601Z,2.60
2018-12-13T12:56:30.793Z,2.70
2018-12-13T12:58:58.990Z,2.70
2018-12-13T13:01:30.762Z,2.50
2018-12-13T13:08:55.321Z,2.70
2018-12-13T13:11:26.950Z,2.70
2018-12-13T13:13:55.246Z,2.60
2018-12-13T13:16:23.466Z,2.80
2018-12-13T13:18:51.629Z,2.60
2018-12-13T13:21:23.515Z,2.40
2018-12-13T13:28:54.142Z,2.40
2018-12-13T13:31:25.810Z,2.30
2018-12-13T13:33:53.974Z,2.40
2018-12-13T13:36:22.194Z,2.60
2018-12-13T13:38:50.422Z,2.40
2018-12-13T13:46:20.909Z,2.60
2018-12-13T13:48:49.066Z,2.70
2018-12-13T13:53:51.798Z,2.70
2018-12-13T13:56:19.978Z,2.60
2018-12-13T13:59:00.858Z,2.60
2018-12-13T14:01:32.775Z,2.60
2018-12-13T14:04:00.937Z,2.40
2018-12-13T14:06:29.102Z,2.60
2018-12-13T14:08:57.358Z,2.60
2018-12-13T14:11:29.535Z,2.70
2018-12-13T14:13:57.691Z,2.90
2018-12-13T14:16:25.976Z,2.60
2018-12-13T14:21:28.457Z,2.80
2018-12-13T14:26:24.848Z,2.60
2018-12-13T14:28:52.996Z,2.70
2018-12-13T14:31:27.655Z,2.30
2018-12-13T14:33:55.817Z,2.70
2018-12-13T14:36:24.018Z,2.60
2018-12-13T14:38:52.492Z,2.70
2018-12-13T14:43:51.969Z,2.70
2018-12-13T14:46:20.133Z,2.70
2018-12-13T14:48:48.377Z,2.60
2018-12-13T14:51:19.800Z,2.50
2018-12-13T14:53:47.984Z,2.70
2018-12-13T14:56:16.153Z,2.60
2018-12-13T14:58:44.378Z,2.60
2018-12-13T15:01:16.251Z,2.60
2018-12-13T15:03:44.429Z,2.60
2018-12-13T15:06:12.629Z,2.60
2018-12-13T15:14:59.361Z,2.60
2018-12-13T15:27:20.354Z,2.60
2018-12-13T15:29:48.521Z,2.60
2018-12-13T15:32:16.725Z,3.00
2018-12-13T15:34:44.895Z,2.50
2018-12-13T15:37:13.087Z,2.50
2018-12-13T15:42:09.493Z,2.40
2018-12-13T15:44:37.657Z,2.90
2018-12-13T15:47:05.832Z,2.50
2018-12-13T16:02:08.259Z,2.50
2018-12-13T16:04:36.446Z,2.50
2018-12-13T16:19:25.998Z,2.50
2018-12-13T16:37:02.765Z,2.50
2018-12-13T16:39:30.945Z,2.50
2018-12-13T16:42:00.582Z,2.80
2018-12-13T16:51:54.294Z,2.50
2018-12-13T16:59:18.879Z,2.40
2018-12-13T17:01:48.414Z,2.50
2018-12-13T17:04:16.587Z,2.10
2018-12-13T17:06:44.789Z,2.50
2018-12-13T17:11:53.602Z,2.50
2018-12-13T17:20:19.594Z,2.50
2018-12-13T17:22:47.766Z,2.50
2018-12-13T17:27:44.153Z,2.50
2018-12-13T17:37:53.326Z,2.50
2018-12-13T17:40:24.796Z,2.70
2018-12-13T17:42:53.148Z,2.60
2018-12-13T17:45:21.357Z,2.50
2018-12-13T17:47:49.558Z,2.50
2018-12-13T17:50:24.065Z,2.50
2018-12-13T17:52:52.226Z,2.50
2018-12-13T17:55:20.447Z,2.40
2018-12-13T17:57:48.975Z,2.50
2018-12-13T18:02:46.533Z,2.40
2018-12-13T18:07:42.943Z,2.20
2018-12-13T18:15:42.593Z,2.30
2018-12-13T18:20:51.838Z,2.30
2018-12-13T18:23:20.557Z,2.30
2018-12-13T18:25:48.743Z,2.30
2018-12-13T18:28:16.920Z,2.20
2018-12-13T18:35:42.854Z,2.70
2018-12-13T18:38:11.026Z,2.30
2018-12-13T18:40:52.122Z,2.40
2018-12-13T18:45:48.580Z,2.30
2018-12-13T18:48:16.736Z,2.40
2018-12-13T18:53:26.071Z,2.40
2018-12-13T19:03:47.594Z,2.30
2018-12-13T19:08:43.909Z,2.20
2018-12-13T19:11:26.508Z,2.30
2018-12-13T19:16:22.909Z,2.30
2018-12-13T19:26:30.139Z,2.40
2018-12-13T19:28:58.293Z,2.20
2018-12-13T19:31:30.031Z,2.30
2018-12-13T19:33:59.420Z,2.10
2018-12-13T19:41:37.707Z,2.20
2018-12-13T19:44:05.915Z,2.30
2018-12-13T19:46:34.104Z,2.10
2018-12-13T19:49:14.881Z,2.30
2018-12-13T20:14:57.806Z,2.20
2018-12-13T20:27:19.018Z,2.20
2018-12-13T20:29:47.250Z,2.30
2018-12-13T20:34:57.309Z,2.10
2018-12-13T20:37:38.555Z,2.20
2018-12-13T20:50:04.601Z,2.30
2018-12-13T20:59:57.597Z,2.30
2018-12-13T21:02:25.766Z,2.30
2018-12-13T21:04:53.969Z,2.30
2018-12-13T21:07:27.762Z,2.30
2018-12-13T21:09:56.187Z,2.20
2018-12-13T21:14:52.558Z,2.30
2018-12-13T21:22:17.104Z,2.30
2018-12-13T21:24:45.275Z,2.20
2018-12-13T21:27:13.478Z,2.30
2018-12-13T21:44:37.153Z,2.20
2018-12-13T21:47:05.329Z,2.20
2018-12-13T21:49:33.500Z,2.20
2018-12-13T21:52:05.181Z,2.20
2018-12-13T21:54:33.379Z,2.10
2018-12-13T21:57:01.809Z,2.80
2018-12-13T21:59:29.985Z,2.10
2018-12-13T22:04:30.394Z,2.20
2018-12-13T22:06:58.711Z,2.10
2018-12-13T22:09:26.879Z,2.20
2018-12-13T22:11:58.898Z,2.30
2018-12-13T22:14:27.128Z,2.10
2018-12-13T22:16:56.315Z,2.00
2018-12-13T22:24:24.101Z,1.90
2018-12-13T22:26:52.406Z,2.00
2018-12-13T22:36:52.390Z,2.10
2018-12-13T22:39:20.635Z,1.90
2018-12-13T22:41:52.082Z,2.00
2018-12-13T22:44:20.287Z,2.00
2018-12-13T22:46:48.512Z,2.10
2018-12-13T22:49:16.708Z,2.00
2018-12-13T22:54:16.177Z,2.10
2018-12-13T22:56:44.372Z,1.50
2018-12-13T22:59:12.692Z,2.10
2018-12-13T23:01:44.167Z,1.80
2018-12-13T23:04:12.379Z,2.10
2018-12-13T23:06:40.585Z,2.20
2018-12-13T23:09:08.856Z,2.10
2018-12-13T23:11:43.251Z,2.20
2018-12-13T23:16:40.280Z,2.00
2018-12-13T23:19:08.484Z,2.00
2018-12-13T23:21:39.745Z,2.10
2018-12-13T23:24:08.523Z,2.20
2018-12-13T23:26:36.750Z,2.00
2018-12-13T23:29:04.962Z,2.00
2018-12-13T23:31:40.294Z,1.80
2018-12-13T23:34:08.670Z,1.70
2018-12-13T23:36:36.889Z,2.10
2018-12-13T23:39:05.300Z,2.00
2018-12-13T23:41:39.313Z,2.10
2018-12-13T23:44:07.034Z,2.20
2018-12-13T23:46:35.275Z,2.30
2018-12-13T23:49:03.488Z,2.20
2018-12-13T23:54:06.178Z,2.00
2018-12-13T23:59:02.574Z,1.90
